Time;durP1;ratioP1;P1;durP2;ratioP2;P2;SDS_P1;SDS_P2;PMS_P1;PMS_P2;Temp;Humidity;BMP_temperature;BMP_pressure;BME280_temperature;BME280_humidity;BME280_pressure;Samples;Min_cycle;Max_cycle;Signal;HPM_P1;HPM_P2
2021/01/06 00:01:12;;;;;;;10.63;5.07;;;;;;;2.88;86.62;100888.31;5042842;28;20663;-65
2021/01/06 00:03:38;;;;;;;6.20;4.83;;;;;;;2.87;86.62;100895.34;5043777;28;20208;-64
2021/01/06 00:06:08;;;;;;;7.17;5.13;;;;;;;2.87;86.59;100895.34;5043167;28;20221;-65
2021/01/06 00:08:35;;;;;;;6.93;4.43;;;;;;;2.86;86.85;100892.78;5036043;28;20247;-65
2021/01/06 00:11:01;;;;;;;6.40;5.20;;;;;;;2.86;86.25;100900.69;5043173;28;20243;-66
2021/01/06 00:13:28;;;;;;;7.73;4.77;;;;;;;2.84;86.46;100894.59;5041081;28;20205;-66
2021/01/06 00:15:55;;;;;;;5.67;4.60;;;;;;;2.83;86.04;100901.63;5037794;28;20260;-64
2021/01/06 00:18:23;;;;;;;7.53;5.10;;;;;;;2.83;86.54;100895.50;5039400;28;20254;-65
2021/01/06 00:20:50;;;;;;;6.90;4.60;;;;;;;2.83;86.11;100898.13;5039039;28;20202;-64
2021/01/06 00:23:17;;;;;;;6.73;4.50;;;;;;;2.81;86.81;100890.28;5041735;28;20197;-65
2021/01/06 00:25:43;;;;;;;6.37;4.87;;;;;;;2.82;86.51;100896.41;5039570;28;20288;-65
2021/01/06 00:28:12;;;;;;;6.30;4.40;;;;;;;2.83;86.61;100885.00;5036769;28;20625;-65
2021/01/06 00:30:42;;;;;;;6.03;4.53;;;;;;;2.83;86.81;100890.25;5042714;28;20214;-65
2021/01/06 00:33:11;;;;;;;6.43;4.90;;;;;;;2.82;86.54;100889.38;5039771;28;20251;-65
2021/01/06 00:35:37;;;;;;;7.57;4.87;;;;;;;2.82;86.31;100884.13;5037290;28;20225;-66
2021/01/06 00:38:04;;;;;;;5.40;4.20;;;;;;;2.83;86.54;100882.34;5041106;28;20665;-66
2021/01/06 00:40:33;;;;;;;6.37;4.63;;;;;;;2.83;86.81;100879.72;5037592;28;20231;-65
2021/01/06 00:43:00;;;;;;;7.30;4.60;;;;;;;2.82;86.29;100878.88;5038714;28;20202;-63
2021/01/06 00:45:27;;;;;;;8.50;4.77;;;;;;;2.82;86.01;100870.97;5043300;28;20234;-65
2021/01/06 00:47:55;;;;;;;6.23;4.23;;;;;;;2.83;86.32;100877.97;5043979;28;20221;-66
2021/01/06 00:50:22;;;;;;;5.93;4.47;;;;;;;2.82;86.76;100872.75;5043888;28;20202;-65
2021/01/06 00:52:48;;;;;;;6.43;4.47;;;;;;;2.81;86.13;100871.88;5042507;28;20719;-65
2021/01/06 00:55:15;;;;;;;6.90;4.90;;;;;;;2.81;86.04;100858.72;5042472;28;20274;-65
2021/01/06 00:57:41;;;;;;;5.80;4.27;;;;;;;2.80;86.15;100862.25;5038289;28;20210;-66
2021/01/06 01:00:14;;;;;;;6.97;4.33;;;;;;;2.80;86.45;100862.25;5046877;28;20255;-66
2021/01/06 01:02:40;;;;;;;6.67;4.40;;;;;;;2.78;85.78;100859.66;5048524;28;20259;-66
2021/01/06 01:05:09;;;;;;;7.03;4.20;;;;;;;2.79;86.36;100860.53;5045229;28;20330;-65
2021/01/06 01:07:35;;;;;;;5.37;4.37;;;;;;;2.77;85.81;100852.69;5047938;28;20278;-66
2021/01/06 01:10:01;;;;;;;5.67;4.07;;;;;;;2.77;86.54;100857.06;5045458;28;20635;-66
2021/01/06 01:12:27;;;;;;;5.23;3.67;;;;;;;2.76;86.34;100848.31;5041168;28;20214;-67
2021/01/06 01:14:53;;;;;;;5.43;3.67;;;;;;;2.76;86.18;100853.59;5040279;28;20290;-65
2021/01/06 01:17:19;;;;;;;6.53;3.70;;;;;;;2.74;86.09;100847.50;5040909;28;20197;-66
2021/01/06 01:19:45;;;;;;;5.67;4.20;;;;;;;2.76;86.62;100852.72;5042405;28;20205;-66
2021/01/06 01:22:12;;;;;;;4.87;3.83;;;;;;;2.76;86.27;100850.09;5046900;28;20202;-66
2021/01/06 01:24:38;;;;;;;5.60;3.90;;;;;;;2.76;86.58;100845.69;5049179;28;20252;-66
2021/01/06 01:27:05;;;;;;;5.03;3.80;;;;;;;2.75;86.43;100851.84;5046230;28;20216;-64
2021/01/06 01:29:31;;;;;;;7.43;3.90;;;;;;;2.73;86.24;100848.41;5041895;28;20229;-66
2021/01/06 01:31:57;;;;;;;4.37;3.43;;;;;;;2.72;86.47;100846.69;5040813;28;20206;-65
2021/01/06 01:34:23;;;;;;;5.13;3.70;;;;;;;2.71;86.63;100846.72;5048375;28;20674;-64
2021/01/06 01:36:50;;;;;;;5.13;4.20;;;;;;;2.70;86.34;100852.88;5048257;28;20216;-66
2021/01/06 01:39:19;;;;;;;5.93;4.20;;;;;;;2.69;86.63;100853.78;5044941;28;20213;-64
2021/01/06 01:41:45;;;;;;;5.87;4.00;;;;;;;2.69;85.72;100854.66;5049520;28;20213;-65
2021/01/06 01:44:11;;;;;;;5.80;4.43;;;;;;;2.70;86.02;100851.13;5051201;28;20554;-65
2021/01/06 01:46:50;;;;;;;5.90;4.00;;;;;;;2.71;86.12;100844.94;5051497;28;20221;-65
2021/01/06 01:49:27;;;;;;;6.87;4.40;;;;;;;2.71;86.27;100842.31;5050097;28;20228;-65
2021/01/06 01:51:59;;;;;;;7.50;5.00;;;;;;;2.72;86.45;100841.41;5039943;28;20210;-66
2021/01/06 01:54:28;;;;;;;7.70;4.60;;;;;;;2.71;85.56;100834.44;5035022;28;20212;-64
2021/01/06 01:56:59;;;;;;;7.20;4.73;;;;;;;2.71;85.63;100837.06;5038789;28;20198;-65
2021/01/06 01:59:31;;;;;;;9.17;4.93;;;;;;;2.70;86.11;100831.84;5040014;28;20206;-66
2021/01/06 02:02:01;;;;;;;6.87;5.30;;;;;;;2.70;85.63;100829.22;5051728;28;20251;-65
2021/01/06 02:04:36;;;;;;;7.90;5.27;;;;;;;2.69;85.99;100838.88;5044642;28;20206;-66
2021/01/06 02:07:09;;;;;;;6.03;5.00;;;;;;;2.68;86.46;100831.91;5045039;28;20215;-64
2021/01/06 02:09:46;;;;;;;7.50;6.30;;;;;;;2.68;86.54;100825.78;5049012;28;20241;-65
2021/01/06 02:12:15;;;;;;;9.37;6.47;;;;;;;2.66;86.29;100828.47;5043362;28;20212;-65
2021/01/06 02:14:52;;;;;;;7.20;5.83;;;;;;;2.66;86.47;100827.59;5037416;28;20229;-65
2021/01/06 02:17:19;;;;;;;8.43;6.03;;;;;;;2.66;86.68;100828.47;5036732;28;20263;-66
2021/01/06 02:19:46;;;;;;;9.87;6.57;;;;;;;2.66;86.39;100823.19;5040824;28;20194;-66
2021/01/06 02:22:16;;;;;;;7.90;5.70;;;;;;;2.66;85.71;100822.34;5049385;28;20208;-66
2021/01/06 02:24:44;;;;;;;9.60;6.60;;;;;;;2.64;86.42;100824.16;5051786;28;20639;-66
2021/01/06 02:27:11;;;;;;;8.23;5.63;;;;;;;2.62;85.95;100821.56;5050202;28;20208;-66
2021/01/06 02:29:38;;;;;;;7.27;5.43;;;;;;;2.60;86.21;100826.00;5049007;28;20225;-66
2021/01/06 02:32:05;;;;;;;6.93;5.10;;;;;;;2.60;86.74;100820.75;5044044;28;20569;-66
2021/01/06 02:34:34;;;;;;;9.07;5.50;;;;;;;2.62;86.11;100823.31;5051194;28;20225;-66
2021/01/06 02:37:01;;;;;;;7.17;5.50;;;;;;;2.62;85.80;100815.44;5039261;28;20210;-65
2021/01/06 02:39:27;;;;;;;8.30;5.10;;;;;;;2.59;85.83;100816.38;5038879;28;20655;-66
2021/01/06 02:41:54;;;;;;;6.73;4.73;;;;;;;2.59;86.12;100818.16;5044559;28;20208;-66
2021/01/06 02:44:20;;;;;;;6.20;4.33;;;;;;;2.59;86.76;100813.75;5049667;28;20677;-66
2021/01/06 02:46:47;;;;;;;4.77;3.90;;;;;;;2.57;86.15;100809.44;5051009;28;20223;-66
2021/01/06 02:49:14;;;;;;;7.03;4.50;;;;;;;2.58;86.42;100811.16;5048883;28;20218;-66
2021/01/06 02:51:45;;;;;;;5.27;4.43;;;;;;;2.57;86.69;100812.94;5050487;28;20221;-64
2021/01/06 02:54:15;;;;;;;6.67;4.10;;;;;;;2.56;86.53;100807.72;5050280;28;20295;-65
2021/01/06 02:56:43;;;;;;;5.20;3.90;;;;;;;2.56;86.35;100805.94;5049647;28;20232;-64
2021/01/06 02:59:12;;;;;;;6.07;3.80;;;;;;;2.56;86.28;100811.19;5039823;28;20674;-66
2021/01/06 03:01:41;;;;;;;6.07;4.07;;;;;;;2.56;86.05;100805.09;5040341;28;20212;-65
2021/01/06 03:04:11;;;;;;;7.20;4.17;;;;;;;2.56;86.14;100805.94;5043825;28;20769;-66
2021/01/06 03:06:42;;;;;;;6.03;3.63;;;;;;;2.55;86.61;100803.34;5040171;28;20256;-66
2021/01/06 03:09:22;;;;;;;4.93;3.30;;;;;;;2.54;86.64;100794.59;5046854;28;20702;-66
2021/01/06 03:11:49;;;;;;;6.47;4.10;;;;;;;2.53;86.23;100790.25;5049918;28;20661;-65
2021/01/06 03:14:16;;;;;;;6.67;4.23;;;;;;;2.52;87.05;100792.91;5050691;28;20206;-66
2021/01/06 03:16:42;;;;;;;5.27;4.30;;;;;;;2.51;86.46;100792.06;5049126;28;20218;-66
2021/01/06 03:19:10;;;;;;;5.73;4.03;;;;;;;2.50;86.48;100785.09;5041457;28;20208;-67
2021/01/06 03:21:39;;;;;;;6.17;4.30;;;;;;;2.50;86.73;100785.09;5048569;28;20669;-62
2021/01/06 03:24:08;;;;;;;7.20;4.47;;;;;;;2.52;86.68;100795.53;5049203;28;20681;-67
2021/01/06 03:26:36;;;;;;;6.50;4.80;;;;;;;2.50;86.24;100785.09;5048974;28;20231;-66
2021/01/06 03:29:03;;;;;;;5.03;4.07;;;;;;;2.49;86.91;100793.91;5047767;28;20237;-67
2021/01/06 03:31:37;;;;;;;5.43;4.10;;;;;;;2.50;86.19;100789.50;5038928;28;20209;-67
2021/01/06 03:34:10;;;;;;;5.90;4.20;;;;;;;2.50;86.61;100785.09;5043649;28;20198;-67
2021/01/06 03:36:43;;;;;;;5.27;4.33;;;;;;;2.48;86.60;100781.66;5040549;28;20253;-66
2021/01/06 03:39:14;;;;;;;5.63;4.07;;;;;;;2.48;86.23;100786.91;5043201;28;20199;-67
2021/01/06 03:41:40;;;;;;;6.87;4.50;;;;;;;2.47;86.73;100785.19;5039174;28;20201;-66
2021/01/06 03:44:10;;;;;;;5.17;3.70;;;;;;;2.48;87.07;100778.16;5045579;28;20205;-66
2021/01/06 03:46:44;;;;;;;5.93;4.20;;;;;;;2.46;87.01;100779.97;5045067;28;20221;-66
2021/01/06 03:49:19;;;;;;;5.20;3.57;;;;;;;2.46;86.32;100778.19;5045259;28;20229;-66
2021/01/06 03:51:55;;;;;;;6.90;3.93;;;;;;;2.44;86.78;100770.34;5038410;28;20197;-63
2021/01/06 03:54:28;;;;;;;5.43;3.57;;;;;;;2.43;87.06;100768.63;5039282;28;20696;-65
2021/01/06 03:56:59;;;;;;;4.40;3.57;;;;;;;2.42;87.07;100766.03;5049679;28;20197;-64
2021/01/06 03:59:29;;;;;;;4.17;3.10;;;;;;;2.42;86.69;100758.16;5038259;28;20198;-66
2021/01/06 04:02:00;;;;;;;5.43;3.40;;;;;;;2.42;86.37;100766.03;5041987;28;20228;-65
2021/01/06 04:04:30;;;;;;;5.07;3.43;;;;;;;2.41;86.57;100765.19;5046597;28;20574;-65
2021/01/06 04:06:58;;;;;;;4.27;3.00;;;;;;;2.42;87.04;100760.78;5038738;28;20197;-67
2021/01/06 04:09:31;;;;;;;5.03;3.70;;;;;;;2.40;86.14;100757.34;5045049;28;20246;-67
2021/01/06 04:12:04;;;;;;;5.67;3.43;;;;;;;2.39;87.10;100751.22;5041753;28;20206;-66
2021/01/06 04:14:31;;;;;;;6.23;3.50;;;;;;;2.40;87.29;100752.06;5046567;28;20735;-67
2021/01/06 04:17:03;;;;;;;4.87;3.17;;;;;;;2.40;86.60;100762.59;5039888;28;20789;-66
2021/01/06 04:19:29;;;;;;;6.40;3.53;;;;;;;2.39;87.05;100760.88;5043947;28;20263;-67
2021/01/06 04:21:55;;;;;;;4.33;3.17;;;;;;;2.37;86.32;100757.41;5043677;28;20685;-66
2021/01/06 04:24:21;;;;;;;5.50;3.70;;;;;;;2.37;86.44;100747.75;5047646;28;20206;-64
2021/01/06 04:26:47;;;;;;;5.60;3.50;;;;;;;2.37;87.20;100749.53;5039866;28;20219;-64
2021/01/06 04:29:14;;;;;;;6.57;3.70;;;;;;;2.37;86.47;100746.91;5050004;28;20226;-66
2021/01/06 04:31:41;;;;;;;5.13;3.90;;;;;;;2.37;87.03;100745.13;5050532;28;20202;-67
2021/01/06 04:34:07;;;;;;;5.70;3.53;;;;;;;2.38;87.12;100746.88;5038504;28;20251;-64
2021/01/06 04:36:33;;;;;;;6.20;3.40;;;;;;;2.37;87.14;100744.28;5047740;28;20275;-65
2021/01/06 04:39:01;;;;;;;4.97;3.27;;;;;;;2.35;86.29;100739.06;5048920;28;20204;-66
2021/01/06 04:41:42;;;;;;;6.40;3.30;;;;;;;2.36;86.70;100739.91;5047405;28;20258;-65
2021/01/06 04:44:33;;;;;;;4.10;2.93;;;;;;;2.34;86.98;100736.47;5049765;28;20625;-66
2021/01/06 04:47:23;;;;;;;4.80;3.30;;;;;;;2.35;86.59;100732.94;5046048;28;20263;-65
2021/01/06 04:50:02;;;;;;;4.60;3.17;;;;;;;2.34;86.64;100733.84;5049985;28;20231;-67
2021/01/06 04:52:43;;;;;;;5.80;3.37;;;;;;;2.31;86.34;100729.56;5041044;28;20228;-67
2021/01/06 04:55:28;;;;;;;4.67;3.23;;;;;;;2.29;86.70;100733.13;5038908;28;20728;-67
2021/01/06 04:58:04;;;;;;;5.40;3.73;;;;;;;2.29;87.14;100727.88;5048849;28;20212;-67
2021/01/06 05:00:36;;;;;;;4.23;3.23;;;;;;;2.26;87.19;100728.81;5050293;28;20216;-66
2021/01/06 05:03:43;;;;;;;5.13;3.73;;;;;;;2.24;87.13;100722.75;5047148;28;20205;-67
2021/01/06 05:06:32;;;;;;;4.87;3.40;;;;;;;2.24;86.42;100728.00;5001072;28;20230;-65
2021/01/06 05:09:09;;;;;;;4.27;3.10;;;;;;;2.23;87.16;100723.66;5047125;28;20438;-66
2021/01/06 05:11:56;;;;;;;5.53;3.40;;;;;;;2.23;86.94;100723.66;5048544;28;20220;-64
2021/01/06 05:14:30;;;;;;;4.57;3.17;;;;;;;2.23;87.13;100733.28;5055644;28;20201;-67
2021/01/06 05:16:56;;;;;;;5.03;3.40;;;;;;;2.20;86.45;100725.50;5053031;28;20198;-67
2021/01/06 05:19:25;;;;;;;6.23;3.57;;;;;;;2.19;87.01;100723.75;5048101;28;20201;-67
2021/01/06 05:21:52;;;;;;;4.00;3.20;;;;;;;2.19;86.46;100715.88;5045526;28;20259;-66
2021/01/06 05:24:24;;;;;;;4.97;3.60;;;;;;;2.19;86.80;100724.63;5045846;28;20206;-67
2021/01/06 05:26:56;;;;;;;6.23;3.57;;;;;;;2.19;86.44;100714.13;5052828;28;20214;-66
2021/01/06 05:29:26;;;;;;;5.03;3.27;;;;;;;2.19;87.00;100718.50;5048734;28;20218;-65
2021/01/06 05:31:53;;;;;;;5.03;3.40;;;;;;;2.19;86.71;100715.88;5045143;28;20212;-67
2021/01/06 05:34:19;;;;;;;5.80;3.33;;;;;;;2.18;87.17;100720.28;5053280;28;20210;-66
2021/01/06 05:36:47;;;;;;;6.43;3.17;;;;;;;2.17;86.54;100717.69;5046639;28;20580;-65
2021/01/06 05:39:21;;;;;;;6.67;3.20;;;;;;;2.15;86.45;100715.09;5052094;28;20193;-67
2021/01/06 05:41:50;;;;;;;6.73;3.37;;;;;;;2.13;86.40;100716.94;5045888;28;20209;-66
2021/01/06 05:44:16;;;;;;;5.37;3.70;;;;;;;2.12;86.47;100709.97;5044165;28;20202;-67
2021/01/06 05:46:46;;;;;;;7.47;4.00;;;;;;;2.12;86.57;100715.22;5047612;28;20243;-66
2021/01/06 05:49:19;;;;;;;5.43;3.77;;;;;;;2.11;86.60;100715.25;5053075;28;20228;-66
2021/01/06 05:51:54;;;;;;;5.70;3.97;;;;;;;2.10;87.20;100717.00;5049966;28;20205;-66
2021/01/06 05:54:22;;;;;;;8.40;3.97;;;;;;;2.07;87.10;100710.06;5047478;28;20259;-66
2021/01/06 05:56:58;;;;;;;8.37;3.97;;;;;;;2.05;86.71;100706.63;5052280;28;20590;-66
2021/01/06 05:59:51;;;;;;;5.83;3.77;;;;;;;2.06;86.65;100715.38;5052211;28;20197;-66
2021/01/06 06:02:23;;;;;;;5.97;3.73;;;;;;;2.05;86.71;100719.75;5051206;28;20214;-66
2021/01/06 06:05:12;;;;;;;5.93;3.87;;;;;;;2.02;86.60;100717.22;5050353;28;20229;-66
2021/01/06 06:07:56;;;;;;;5.53;3.57;;;;;;;1.99;87.07;100709.41;5052254;28;20274;-67
2021/01/06 06:10:40;;;;;;;5.17;3.90;;;;;;;1.97;87.10;100716.47;5052954;28;20696;-67
2021/01/06 06:13:21;;;;;;;5.83;3.77;;;;;;;1.94;86.80;100711.31;5047167;28;20213;-66
2021/01/06 06:15:59;;;;;;;5.97;3.83;;;;;;;1.92;87.12;100705.25;5054662;28;20610;-65
2021/01/06 06:18:48;;;;;;;5.27;3.70;;;;;;;1.90;86.94;100709.69;5050795;28;20201;-66
2021/01/06 06:21:30;;;;;;;6.77;3.80;;;;;;;1.91;86.88;100700.03;5048963;28;20626;-66
2021/01/06 06:24:31;;;;;;;4.87;3.77;;;;;;;1.92;87.22;100712.25;5046912;28;20205;-66
2021/01/06 06:27:05;;;;;;;6.60;4.10;;;;;;;1.92;87.20;100712.25;5036571;28;20205;-65
2021/01/06 06:29:42;;;;;;;8.20;4.20;;;;;;;1.94;87.17;100710.47;5050662;28;20228;-65
2021/01/06 06:32:08;;;;;;;9.00;4.90;;;;;;;1.93;86.73;100706.97;5049431;28;20295;-66
2021/01/06 06:34:36;;;;;;;5.50;3.97;;;;;;;1.94;86.95;100706.06;5050438;28;20646;-65
2021/01/06 06:37:11;;;;;;;7.23;4.23;;;;;;;1.93;86.76;100703.47;5051291;28;20205;-65
2021/01/06 06:39:42;;;;;;;6.47;4.10;;;;;;;1.95;86.77;100707.78;5051433;28;20198;-66
2021/01/06 06:42:19;;;;;;;5.30;3.87;;;;;;;1.95;86.50;100713.06;5049629;28;20197;-65
2021/01/06 06:44:57;;;;;;;5.67;3.50;;;;;;;1.95;87.18;100707.78;5050001;28;20225;-66
2021/01/06 06:47:30;;;;;;;7.17;4.10;;;;;;;1.93;86.99;100709.59;5050619;28;20197;-66
2021/01/06 06:50:21;;;;;;;6.43;4.20;;;;;;;1.92;87.46;100707.00;5050927;28;22361;-65
2021/01/06 06:52:55;;;;;;;6.23;4.53;;;;;;;1.91;86.70;100706.16;5054785;28;20205;-66
2021/01/06 06:55:35;;;;;;;6.47;4.20;;;;;;;1.90;86.70;100704.41;5046175;28;20237;-65
2021/01/06 06:58:37;;;;;;;7.83;5.20;;;;;;;1.87;87.35;100708.88;5050788;28;20661;-66
2021/01/06 07:01:08;;;;;;;5.13;3.80;;;;;;;1.87;86.62;100719.41;5045238;28;20682;-65
2021/01/06 07:03:37;;;;;;;6.70;4.47;;;;;;;1.86;87.14;100707.16;5049861;28;20236;-66
2021/01/06 07:06:07;;;;;;;6.37;5.00;;;;;;;1.84;87.25;100715.09;5059224;28;20217;-65
2021/01/06 07:08:38;;;;;;;9.20;5.30;;;;;;;1.84;87.04;100708.97;5049447;28;20209;-66
2021/01/06 07:11:17;;;;;;;5.63;4.27;;;;;;;1.85;86.95;100710.69;5052186;28;20541;-66
2021/01/06 07:13:46;;;;;;;8.40;5.23;;;;;;;1.85;86.72;100721.19;5040068;28;20212;-65
2021/01/06 07:16:17;;;;;;;9.63;5.37;;;;;;;1.84;87.15;100711.59;5051799;28;20222;-66
2021/01/06 07:18:45;;;;;;;7.97;5.13;;;;;;;1.84;87.15;100717.72;5058868;28;20214;-67
2021/01/06 07:21:22;;;;;;;10.33;5.33;;;;;;;1.85;87.25;100716.81;5050891;28;20202;-64
2021/01/06 07:23:53;;;;;;;10.20;5.97;;;;;;;1.84;86.87;100720.34;5043477;28;20303;-66
2021/01/06 07:26:26;;;;;;;9.23;5.27;;;;;;;1.84;87.45;100725.59;5050586;28;20221;-67
2021/01/06 07:28:59;;;;;;;8.60;5.67;;;;;;;1.84;86.55;100715.09;5050091;28;20233;-65
2021/01/06 07:31:28;;;;;;;57.90;9.33;;;;;;;1.84;87.33;100717.72;5050236;28;20202;-65
2021/01/06 07:33:56;;;;;;;32.10;7.07;;;;;;;1.83;87.18;100721.22;5039547;28;20202;-66
2021/01/06 07:36:26;;;;;;;9.80;5.37;;;;;;;1.82;87.42;100719.50;5046812;28;20225;-66
2021/01/06 07:38:53;;;;;;;8.10;4.40;;;;;;;1.81;86.95;100720.41;5041707;28;20216;-66
2021/01/06 07:41:22;;;;;;;33.03;6.63;;;;;;;1.77;86.94;100729.28;5048826;28;20712;-66
2021/01/06 07:44:05;;;;;;;21.57;5.57;;;;;;;1.76;87.33;100726.69;5046747;28;20197;-66
2021/01/06 07:46:45;;;;;;;10.00;5.00;;;;;;;1.76;86.73;100724.09;5031665;28;20260;-66
2021/01/06 07:49:36;;;;;;;8.23;5.20;;;;;;;1.74;87.14;100716.25;5051196;28;20598;-66
2021/01/06 07:52:14;;;;;;;15.60;5.23;;;;;;;1.72;86.73;100726.78;5068066;28;20200;-66
2021/01/06 07:54:48;;;;;;;10.80;4.93;;;;;;;1.73;87.07;100730.28;5039544;28;20225;-66
2021/01/06 07:57:23;;;;;;;12.67;4.83;;;;;;;1.72;87.07;100725.91;5050276;28;20206;-66
2021/01/06 07:59:53;;;;;;;8.73;5.07;;;;;;;1.70;86.76;100725.09;5049282;28;20205;-67
2021/01/06 08:02:26;;;;;;;8.00;5.23;;;;;;;1.69;86.36;100726.00;5049193;28;20633;-66
2021/01/06 08:05:22;;;;;;;31.00;6.53;;;;;;;1.68;87.05;100725.13;5044413;28;20250;-66
2021/01/06 08:07:51;;;;;;;8.77;5.07;;;;;;;1.67;86.62;100717.28;5042548;28;20209;-66
2021/01/06 08:10:28;;;;;;;11.83;5.37;;;;;;;1.64;86.73;100725.25;5037186;28;20223;-66
2021/01/06 08:13:09;;;;;;;8.53;4.50;;;;;;;1.63;86.64;100720.88;5046867;28;20204;-66
2021/01/06 08:15:36;;;;;;;6.73;4.70;;;;;;;1.62;86.87;100724.41;5047222;28;20221;-66
2021/01/06 08:18:07;;;;;;;8.00;5.33;;;;;;;1.61;86.83;100722.72;5041352;28;20201;-66
2021/01/06 08:20:36;;;;;;;12.10;6.00;;;;;;;1.59;86.40;100725.38;5046529;28;20247;-66
2021/01/06 08:23:20;;;;;;;8.50;5.63;;;;;;;1.59;86.88;100719.25;5046394;28;20198;-65
2021/01/06 08:25:56;;;;;;;9.30;5.50;;;;;;;1.58;87.12;100720.16;5034855;28;20258;-66
2021/01/06 08:28:25;;;;;;;7.97;5.77;;;;;;;1.57;86.59;100715.81;5046699;28;20205;-66
2021/01/06 08:30:51;;;;;;;7.43;5.03;;;;;;;1.57;86.68;100721.06;5049650;28;20233;-66
2021/01/06 08:33:19;;;;;;;14.77;6.43;;;;;;;1.56;86.88;100722.81;5041033;28;20573;-66
2021/01/06 08:35:49;;;;;;;7.33;5.30;;;;;;;1.56;86.30;100719.34;5046491;28;20225;-67
2021/01/06 08:38:27;;;;;;;7.70;5.83;;;;;;;1.55;86.91;100718.47;5046030;28;20567;-66
2021/01/06 08:40:54;;;;;;;8.40;6.00;;;;;;;1.55;87.01;100717.59;5042141;28;20201;-66
2021/01/06 08:43:21;;;;;;;9.37;6.13;;;;;;;1.53;86.85;100720.28;5047268;28;20214;-66
2021/01/06 08:45:55;;;;;;;8.50;6.27;;;;;;;1.54;86.95;100718.50;5048319;28;20228;-66
2021/01/06 08:48:25;;;;;;;8.70;5.37;;;;;;;1.54;87.12;100718.50;5049218;28;20201;-66
2021/01/06 08:50:57;;;;;;;8.90;6.17;;;;;;;1.53;86.51;100714.16;5035699;28;20319;-66
2021/01/06 08:53:32;;;;;;;8.67;6.10;;;;;;;1.54;86.85;100715.88;5053061;28;20202;-66
2021/01/06 08:56:00;;;;;;;8.60;5.90;;;;;;;1.55;87.21;100720.22;5053087;28;20232;-66
2021/01/06 08:58:41;;;;;;;9.13;6.23;;;;;;;1.56;87.07;100714.09;5044156;28;20205;-65
2021/01/06 09:01:20;;;;;;;6.87;5.27;;;;;;;1.56;86.88;100714.94;5048238;28;20205;-66
2021/01/06 09:03:58;;;;;;;7.87;5.50;;;;;;;1.57;87.00;100713.19;5059393;28;20303;-66
2021/01/06 09:06:25;;;;;;;7.27;5.80;;;;;;;1.56;86.49;100719.34;5061289;28;20229;-65
2021/01/06 09:08:55;;;;;;;7.93;5.87;;;;;;;1.55;86.66;100710.59;5043363;28;20220;-66
2021/01/06 09:11:25;;;;;;;7.93;5.97;;;;;;;1.56;86.84;100719.34;5057129;28;20209;-66
2021/01/06 09:13:57;;;;;;;8.17;6.27;;;;;;;1.55;86.57;100715.84;5052869;28;20197;-67
2021/01/06 09:16:27;;;;;;;8.47;5.43;;;;;;;1.56;87.00;100714.09;5057770;28;20579;-65
2021/01/06 09:19:01;;;;;;;8.20;5.93;;;;;;;1.57;86.95;100715.81;5057005;28;20208;-67
2021/01/06 09:21:30;;;;;;;7.90;6.17;;;;;;;1.57;87.13;100716.69;5052319;28;20658;-66
2021/01/06 09:24:00;;;;;;;12.00;6.67;;;;;;;1.57;86.92;100716.69;5057441;28;20262;-66
2021/01/06 09:26:27;;;;;;;7.37;5.97;;;;;;;1.59;86.96;100716.63;5043854;28;20237;-66
2021/01/06 09:29:01;;;;;;;10.37;6.57;;;;;;;1.59;86.56;100712.25;5044148;28;20209;-66
2021/01/06 09:31:29;;;;;;;9.47;5.97;;;;;;;1.61;87.05;100712.22;5048815;28;20205;-67
2021/01/06 09:33:58;;;;;;;8.17;6.17;;;;;;;1.62;86.54;100719.16;5053906;28;20264;-67
2021/01/06 09:36:26;;;;;;;10.57;6.47;;;;;;;1.63;86.69;100711.25;5054770;28;20309;-67
2021/01/06 09:38:55;;;;;;;10.67;6.97;;;;;;;1.66;86.48;100712.94;5053853;28;20862;-67
2021/01/06 09:41:24;;;;;;;7.23;6.37;;;;;;;1.66;86.43;100710.31;5052805;28;20206;-67
2021/01/06 09:43:56;;;;;;;8.80;6.77;;;;;;;1.67;87.07;100714.66;5051259;28;20243;-66
2021/01/06 09:46:29;;;;;;;9.83;7.40;;;;;;;1.68;86.52;100716.38;5052029;28;20262;-67
2021/01/06 09:48:59;;;;;;;9.03;6.83;;;;;;;1.68;86.56;100714.63;5047981;28;20628;-67
2021/01/06 09:51:27;;;;;;;12.00;7.33;;;;;;;1.69;87.00;100718.13;5052605;28;20201;-67
2021/01/06 09:53:56;;;;;;;11.13;7.73;;;;;;;1.70;87.11;100719.84;5054652;28;20219;-67
2021/01/06 09:56:25;;;;;;;11.27;7.40;;;;;;;1.69;86.53;100720.75;5058045;28;20237;-66
2021/01/06 09:58:53;;;;;;;9.73;7.30;;;;;;;1.70;86.62;100714.59;5044848;28;20214;-67
2021/01/06 10:01:27;;;;;;;10.47;7.47;;;;;;;1.70;86.47;100712.81;5063793;28;20205;-67
2021/01/06 10:03:55;;;;;;;9.50;6.83;;;;;;;1.70;87.01;100711.97;5044331;28;20213;-67
2021/01/06 10:06:39;;;;;;;8.70;7.17;;;;;;;1.71;86.41;100714.56;5048085;28;20218;-66
2021/01/06 10:09:12;;;;;;;9.93;7.80;;;;;;;1.71;86.97;100708.44;5051544;28;20232;-67
2021/01/06 10:11:51;;;;;;;11.00;7.67;;;;;;;1.71;87.00;100697.94;5051414;28;20206;-66
2021/01/06 10:14:45;;;;;;;10.07;7.67;;;;;;;1.72;86.55;100694.41;5055706;28;20257;-67
2021/01/06 10:17:17;;;;;;;10.87;7.43;;;;;;;1.72;86.83;100690.03;5051875;28;20260;-66
2021/01/06 10:19:50;;;;;;;9.37;7.40;;;;;;;1.73;86.95;100690.88;5050151;28;20205;-66
2021/01/06 10:22:41;;;;;;;10.73;8.70;;;;;;;1.72;87.11;100686.53;5056847;28;20205;-67
2021/01/06 10:25:26;;;;;;;12.07;8.77;;;;;;;1.72;87.04;100689.16;5048111;28;20222;-66
2021/01/06 10:27:57;;;;;;;14.40;9.33;;;;;;;1.72;86.47;100690.03;5039102;28;20217;-67
2021/01/06 10:30:25;;;;;;;14.40;9.13;;;;;;;1.73;86.95;100685.63;5050272;28;20228;-67
2021/01/06 10:33:09;;;;;;;14.90;10.40;;;;;;;1.76;86.53;100682.06;5058949;28;20213;-67
2021/01/06 10:35:45;;;;;;;17.40;11.90;;;;;;;1.78;86.58;100681.13;5050719;28;20724;-67
2021/01/06 10:38:23;;;;;;;17.97;12.83;;;;;;;1.80;86.49;100678.44;5051564;28;20971;-66
2021/01/06 10:40:51;;;;;;;21.43;14.43;;;;;;;1.80;86.44;100673.19;5046295;28;20587;-66
2021/01/06 10:43:43;;;;;;;32.20;16.77;;;;;;;1.80;86.97;100673.19;5057238;28;20201;-65
2021/01/06 10:46:42;;;;;;;27.27;17.73;;;;;;;1.81;86.33;100669.66;5057152;28;20228;-67
2021/01/06 10:49:45;;;;;;;31.37;19.40;;;;;;;1.82;86.83;100667.00;5050208;28;20225;-66
2021/01/06 10:52:51;;;;;;;34.77;19.17;;;;;;;1.83;86.58;100659.97;5051734;28;20213;-66
2021/01/06 10:55:37;;;;;;;37.13;20.30;;;;;;;1.85;86.73;100664.28;5033125;28;20233;-67
2021/01/06 10:58:11;;;;;;;34.60;19.83;;;;;;;1.87;86.54;100662.47;5056161;28;20213;-66
2021/01/06 11:01:17;;;;;;;33.73;19.30;;;;;;;1.87;86.34;100662.47;5055595;28;20201;-65
2021/01/06 11:04:03;;;;;;;35.53;19.73;;;;;;;1.86;86.18;100654.66;4985612;28;20209;-67
2021/01/06 11:06:34;;;;;;;33.73;18.63;;;;;;;1.86;86.65;100660.75;5050372;28;20226;-65
2021/01/06 11:09:29;;;;;;;32.40;18.50;;;;;;;1.86;86.71;100654.66;5047176;28;20214;-67
2021/01/06 11:12:17;;;;;;;36.63;20.13;;;;;;;1.87;86.31;100654.59;5023056;28;20201;-67
2021/01/06 11:15:19;;;;;;;37.00;21.03;;;;;;;1.85;86.90;100645.91;5058922;28;20298;-66
2021/01/06 11:18:03;;;;;;;39.10;20.30;;;;;;;1.86;86.57;100639.75;5053151;28;20217;-67
2021/01/06 11:20:33;;;;;;;37.70;20.53;;;;;;;1.85;86.35;100647.66;5046852;28;20205;-66
2021/01/06 11:23:36;;;;;;;42.43;22.23;;;;;;;1.84;86.16;100644.19;5047309;28;20427;-66
2021/01/06 11:26:23;;;;;;;39.30;20.87;;;;;;;1.85;86.50;100638.03;5042153;28;20225;-67
2021/01/06 11:28:55;;;;;;;35.63;20.10;;;;;;;1.85;86.10;100637.16;5045025;28;20213;-67
2021/01/06 11:31:25;;;;;;;41.70;20.67;;;;;;;1.84;86.14;100631.06;5044001;28;20235;-66
2021/01/06 11:33:54;;;;;;;35.07;21.03;;;;;;;1.84;86.12;100630.19;5045419;28;20212;-67
2021/01/06 11:36:34;;;;;;;31.80;17.03;;;;;;;1.85;86.22;100626.66;5050080;28;21021;-66
2021/01/06 11:39:08;;;;;;;27.10;17.27;;;;;;;1.84;86.47;100623.16;5049944;28;20284;-66
2021/01/06 11:42:09;;;;;;;25.17;15.23;;;;;;;1.86;86.59;100617.88;5049154;28;20267;-66
2021/01/06 11:44:41;;;;;;;22.83;12.90;;;;;;;1.86;85.91;100615.25;5051251;28;20205;-66
2021/01/06 11:47:24;;;;;;;19.67;13.43;;;;;;;1.86;86.76;100604.75;5043202;28;20198;-66
2021/01/06 11:50:05;;;;;;;17.03;11.87;;;;;;;1.86;86.52;100602.97;5041763;28;20621;-65
2021/01/06 11:52:38;;;;;;;14.50;10.73;;;;;;;1.85;86.64;100601.25;5039353;28;20209;-65
2021/01/06 11:55:26;;;;;;;13.87;9.77;;;;;;;1.85;86.03;100595.16;5049046;28;20722;-66
2021/01/06 11:58:00;;;;;;;15.70;10.67;;;;;;;1.84;85.96;100589.03;5048220;28;20725;-65
2021/01/06 12:01:11;;;;;;;12.50;9.70;;;;;;;1.85;86.89;100588.13;5047566;28;20202;-64